createdAt,value
2022-11-23T00:00:54.074Z,3.18
2022-11-23T00:01:54.155Z,3.17
2022-11-23T00:02:54.137Z,3.15
2022-11-23T00:03:54.077Z,3.15
2022-11-23T00:04:54.035Z,3.12
2022-11-23T00:05:54.020Z,3.12
2022-11-23T00:06:54.013Z,3.12
2022-11-23T00:07:54.146Z,3.12
2022-11-23T00:08:54.002Z,3.12
2022-11-23T00:09:54.067Z,3.11
2022-11-23T00:10:53.973Z,3.11
2022-11-23T00:11:53.957Z,3.09
2022-11-23T00:12:53.979Z,3.08
2022-11-23T00:13:53.971Z,3.07
2022-11-23T00:14:53.924Z,3.02
2022-11-23T00:15:53.979Z,3.00
2022-11-23T00:16:53.934Z,3.00
2022-11-23T00:17:53.910Z,3.00
2022-11-23T00:18:53.895Z,2.99
2022-11-23T00:19:53.896Z,2.99
2022-11-23T00:20:53.868Z,2.97
2022-11-23T00:21:53.864Z,2.97
2022-11-23T00:22:53.885Z,2.94
2022-11-23T00:23:53.879Z,2.93
2022-11-23T00:24:53.902Z,2.87
2022-11-23T00:25:53.833Z,2.90
2022-11-23T00:26:53.802Z,2.87
2022-11-23T00:27:53.800Z,2.86
2022-11-23T00:28:53.819Z,2.86
2022-11-23T00:29:53.772Z,2.86
2022-11-23T00:30:53.771Z,2.84
2022-11-23T00:31:53.785Z,2.82
2022-11-23T00:32:53.742Z,2.81
2022-11-23T00:33:53.741Z,2.81
2022-11-23T00:34:53.908Z,2.81
2022-11-23T00:35:54.113Z,2.82
2022-11-23T00:36:53.718Z,2.84
2022-11-23T00:37:53.697Z,2.81
2022-11-23T00:38:53.737Z,2.81
2022-11-23T00:39:53.699Z,2.82
2022-11-23T00:40:53.687Z,2.81
2022-11-23T00:41:53.650Z,2.79
2022-11-23T00:42:53.653Z,2.75
2022-11-23T00:43:53.659Z,2.76
2022-11-23T00:44:53.624Z,2.75
2022-11-23T00:45:53.613Z,2.72
2022-11-23T00:46:58.168Z,2.72
2022-11-23T00:47:53.588Z,2.71
2022-11-23T00:48:53.616Z,2.69
2022-11-23T00:49:53.606Z,2.66
2022-11-23T00:50:53.561Z,2.63
2022-11-23T00:51:53.550Z,2.66
2022-11-23T00:52:53.542Z,2.65
2022-11-23T00:53:53.523Z,2.65
2022-11-23T00:54:53.540Z,2.65
2022-11-23T00:55:53.535Z,2.63
2022-11-23T00:56:53.542Z,2.63
2022-11-23T00:57:53.500Z,2.63
2022-11-23T00:58:53.498Z,2.63
2022-11-23T00:59:53.466Z,2.65
2022-11-23T01:00:53.454Z,2.65
2022-11-23T01:01:53.481Z,2.65
2022-11-23T01:02:53.493Z,2.65
2022-11-23T01:03:53.436Z,2.68
2022-11-23T01:04:53.437Z,2.68
2022-11-23T01:05:53.402Z,2.69
2022-11-23T01:06:53.403Z,2.69
2022-11-23T01:07:53.419Z,2.71
2022-11-23T01:08:53.385Z,2.72
2022-11-23T01:09:53.396Z,2.73
2022-11-23T01:10:53.348Z,2.73
2022-11-23T01:11:53.367Z,2.73
2022-11-23T01:12:53.339Z,2.73
2022-11-23T01:13:53.336Z,2.75
2022-11-23T01:14:53.360Z,2.75
2022-11-23T01:15:53.308Z,2.75
2022-11-23T01:16:53.293Z,2.75
2022-11-23T01:18:14.378Z,2.73
2022-11-23T01:18:53.264Z,2.76
2022-11-23T01:19:53.290Z,2.75
2022-11-23T01:20:53.243Z,2.76
2022-11-23T01:21:53.242Z,2.76
2022-11-23T01:22:53.227Z,2.75
2022-11-23T01:23:53.220Z,2.78
2022-11-23T01:24:53.242Z,2.75
2022-11-23T01:25:56.960Z,2.75
2022-11-23T01:26:53.196Z,2.75
2022-11-23T01:27:53.223Z,2.76
2022-11-23T01:28:53.164Z,2.76
2022-11-23T01:29:53.161Z,2.75
2022-11-23T01:30:53.200Z,2.72
2022-11-23T01:31:53.147Z,2.73
2022-11-23T01:32:53.119Z,2.73
2022-11-23T01:33:53.128Z,2.75
2022-11-23T01:34:53.109Z,2.73
2022-11-23T01:35:53.098Z,2.73
2022-11-23T01:36:53.102Z,2.73
2022-11-23T01:37:53.075Z,2.72
2022-11-23T01:38:53.059Z,2.73
2022-11-23T01:39:53.069Z,2.73
2022-11-23T01:40:53.038Z,2.72
2022-11-23T01:41:53.140Z,2.72
2022-11-23T01:42:53.031Z,2.69
2022-11-23T01:43:53.039Z,2.69
2022-11-23T01:44:53.000Z,2.68
2022-11-23T01:45:53.012Z,2.66
2022-11-23T01:46:52.980Z,2.60
2022-11-23T01:47:57.739Z,2.57
2022-11-23T01:48:52.949Z,2.55
2022-11-23T01:49:52.956Z,2.54
2022-11-23T01:50:52.939Z,2.53
2022-11-23T01:51:52.958Z,2.51
2022-11-23T01:52:52.912Z,2.48
2022-11-23T01:53:52.954Z,2.45
2022-11-23T01:54:52.917Z,2.43
2022-11-23T01:55:52.898Z,2.42
2022-11-23T01:56:52.893Z,2.43
2022-11-23T01:57:52.893Z,2.47
2022-11-23T01:58:52.901Z,2.45
2022-11-23T01:59:52.914Z,2.50
2022-11-23T02:00:52.832Z,2.45
2022-11-23T02:01:52.835Z,2.50
2022-11-23T02:02:52.816Z,2.51
2022-11-23T02:03:52.835Z,2.51
2022-11-23T02:04:52.833Z,2.48
2022-11-23T02:05:52.791Z,2.50
2022-11-23T02:06:52.779Z,2.48
2022-11-23T02:07:52.824Z,2.50
2022-11-23T02:08:52.773Z,2.53
2022-11-23T02:09:52.764Z,2.53
2022-11-23T02:10:52.780Z,2.54
2022-11-23T02:11:52.754Z,2.55
2022-11-23T02:12:52.704Z,2.55
2022-11-23T02:13:53.623Z,2.55
2022-11-23T02:14:52.693Z,2.57
2022-11-23T02:15:52.726Z,2.57
2022-11-23T02:16:52.946Z,2.58
2022-11-23T02:18:03.680Z,2.58
2022-11-23T02:18:52.652Z,2.58
2022-11-23T02:19:52.657Z,2.57
2022-11-23T02:20:52.631Z,2.57
2022-11-23T02:21:52.635Z,2.61
2022-11-23T02:22:52.612Z,2.61
2022-11-23T02:23:52.599Z,2.65
2022-11-23T02:24:52.587Z,2.66
2022-11-23T02:25:52.597Z,2.71
2022-11-23T02:26:52.598Z,2.69
2022-11-23T02:27:52.599Z,2.72
2022-11-23T02:28:52.552Z,2.72
2022-11-23T02:29:52.541Z,2.72
2022-11-23T02:30:52.528Z,2.69
2022-11-23T02:31:52.560Z,2.69
2022-11-23T02:32:52.534Z,2.72
2022-11-23T02:33:52.509Z,2.73
2022-11-23T02:34:52.489Z,2.75
2022-11-23T02:35:52.468Z,2.76
2022-11-23T02:36:52.461Z,2.79
2022-11-23T02:37:52.526Z,2.79
2022-11-23T02:38:52.477Z,2.75
2022-11-23T02:39:52.983Z,2.75
2022-11-23T02:40:52.428Z,2.75
2022-11-23T02:41:52.405Z,2.76
2022-11-23T02:42:52.456Z,2.76
2022-11-23T02:43:52.406Z,2.76
2022-11-23T02:44:52.436Z,2.73
2022-11-23T02:45:52.372Z,2.75
2022-11-23T02:46:52.424Z,2.71
2022-11-23T02:47:55.701Z,2.71
2022-11-23T02:48:52.347Z,2.68
2022-11-23T02:49:52.342Z,2.66
2022-11-23T02:50:52.353Z,2.66
2022-11-23T02:51:52.315Z,2.66
2022-11-23T02:52:52.307Z,2.68
2022-11-23T02:53:52.288Z,2.63
2022-11-23T02:54:52.298Z,2.65
2022-11-23T02:55:52.272Z,2.66
2022-11-23T02:56:52.272Z,2.68
2022-11-23T02:57:52.255Z,2.66
2022-11-23T02:58:52.246Z,2.66
2022-11-23T02:59:52.251Z,2.65
2022-11-23T03:00:52.249Z,2.65
2022-11-23T03:01:52.209Z,2.66
2022-11-23T03:02:52.313Z,2.63
2022-11-23T03:03:52.204Z,2.58
2022-11-23T03:04:52.186Z,2.57
2022-11-23T03:05:52.517Z,2.53
2022-11-23T03:06:52.193Z,2.53
2022-11-23T03:07:52.199Z,2.50
2022-11-23T03:08:52.141Z,2.48
2022-11-23T03:09:52.134Z,2.48
2022-11-23T03:10:52.138Z,2.45
2022-11-23T03:11:52.153Z,2.48
2022-11-23T03:12:52.136Z,2.48
2022-11-23T03:13:52.149Z,2.51
2022-11-23T03:14:52.078Z,2.51
2022-11-23T03:15:52.103Z,2.53
2022-11-23T03:16:52.078Z,2.54
2022-11-23T03:18:02.855Z,2.53
2022-11-23T03:18:52.031Z,2.53
2022-11-23T03:19:52.058Z,2.54
2022-11-23T03:20:52.015Z,2.57
2022-11-23T03:21:52.042Z,2.55
2022-11-23T03:22:51.989Z,2.58
2022-11-23T03:23:52.025Z,2.57
2022-11-23T03:24:51.967Z,2.55
2022-11-23T03:25:51.962Z,2.54
2022-11-23T03:26:51.956Z,2.54
2022-11-23T03:27:51.952Z,2.51
2022-11-23T03:28:59.552Z,2.50
2022-11-23T03:29:51.944Z,2.47
2022-11-23T03:30:51.981Z,2.43
2022-11-23T03:31:51.926Z,2.42
2022-11-23T03:32:51.913Z,2.39
2022-11-23T03:33:51.913Z,2.37
2022-11-23T03:34:51.882Z,2.32
2022-11-23T03:35:51.891Z,2.30
2022-11-23T03:36:51.876Z,2.30
2022-11-23T03:37:51.837Z,2.29
2022-11-23T03:38:51.831Z,2.29
2022-11-23T03:39:51.846Z,2.24
2022-11-23T03:40:51.830Z,2.19
2022-11-23T03:41:51.821Z,2.19
2022-11-23T03:42:51.786Z,2.17
2022-11-23T03:43:51.799Z,2.14
2022-11-23T03:44:51.758Z,2.14
2022-11-23T03:45:51.746Z,2.15
2022-11-23T03:46:51.736Z,2.17
2022-11-23T03:47:51.751Z,2.19
2022-11-23T03:48:51.722Z,2.15
2022-11-23T03:49:51.716Z,2.17
2022-11-23T03:50:51.725Z,2.15
2022-11-23T03:51:51.703Z,2.12
2022-11-23T03:52:51.793Z,2.10
2022-11-23T03:53:51.689Z,2.04
2022-11-23T03:54:52.275Z,2.04
2022-11-23T03:55:51.710Z,2.00
2022-11-23T03:56:51.650Z,2.01
2022-11-23T03:57:51.665Z,1.99
2022-11-23T03:58:51.623Z,1.97
2022-11-23T03:59:51.692Z,1.97
2022-11-23T04:00:51.801Z,1.92
2022-11-23T04:01:51.694Z,1.92
2022-11-23T04:02:51.646Z,1.89
2022-11-23T04:03:51.561Z,1.82
2022-11-23T04:04:51.563Z,1.78
2022-11-23T04:05:51.617Z,1.71
2022-11-23T04:06:51.532Z,1.73
2022-11-23T04:07:51.621Z,1.69
2022-11-23T04:08:51.512Z,1.73
2022-11-23T04:09:51.547Z,1.73
2022-11-23T04:10:51.573Z,1.77
2022-11-23T04:11:51.510Z,1.82
2022-11-23T04:12:51.473Z,1.78
2022-11-23T04:13:51.469Z,1.81
2022-11-23T04:14:51.504Z,1.81
2022-11-23T04:15:51.442Z,1.84
2022-11-23T04:16:51.431Z,1.89
2022-11-23T04:17:51.441Z,1.93
2022-11-23T04:18:51.437Z,1.97
2022-11-23T04:19:51.438Z,1.99
2022-11-23T04:20:51.414Z,1.99
2022-11-23T04:21:51.375Z,1.99
2022-11-23T04:22:51.367Z,1.97
2022-11-23T04:23:51.383Z,2.00
2022-11-23T04:24:51.368Z,2.06
2022-11-23T04:25:51.361Z,2.06
2022-11-23T04:26:51.358Z,2.11
2022-11-23T04:27:51.392Z,2.14
2022-11-23T04:28:51.341Z,2.14
2022-11-23T04:29:51.376Z,2.14
2022-11-23T04:30:51.298Z,2.11
2022-11-23T04:31:51.290Z,2.12
2022-11-23T04:32:51.278Z,2.14
2022-11-23T04:33:51.350Z,2.15
2022-11-23T04:34:51.284Z,2.17
2022-11-23T04:35:51.243Z,2.19
2022-11-23T04:36:51.232Z,2.19
2022-11-23T04:37:51.223Z,2.22
2022-11-23T04:38:51.207Z,2.28
2022-11-23T04:39:51.210Z,2.30
2022-11-23T04:40:51.249Z,2.32
2022-11-23T04:41:51.170Z,2.36
2022-11-23T04:42:51.294Z,2.37
2022-11-23T04:43:51.150Z,2.39
2022-11-23T04:44:51.140Z,2.39
2022-11-23T04:45:51.149Z,2.40
2022-11-23T04:46:51.172Z,2.42
2022-11-23T04:47:51.169Z,2.42
2022-11-23T04:48:51.112Z,2.43
2022-11-23T04:49:51.163Z,2.39
2022-11-23T04:50:55.414Z,2.37
2022-11-23T04:51:51.120Z,2.37
2022-11-23T04:52:51.069Z,2.39
2022-11-23T04:53:51.046Z,2.39
2022-11-23T04:54:51.153Z,2.40
2022-11-23T04:55:51.074Z,2.40
2022-11-23T04:56:51.037Z,2.39
2022-11-23T04:57:51.032Z,2.37
2022-11-23T04:58:51.099Z,2.37
2022-11-23T04:59:50.985Z,2.35
2022-11-23T05:00:51.096Z,2.35
2022-11-23T05:01:51.007Z,2.35
2022-11-23T05:02:50.973Z,2.32
2022-11-23T05:03:50.945Z,2.29
2022-11-23T05:04:50.942Z,2.29
2022-11-23T05:05:50.963Z,2.30
2022-11-23T05:06:50.923Z,2.30
2022-11-23T05:07:50.985Z,2.29
2022-11-23T05:08:50.901Z,2.25
2022-11-23T05:09:50.976Z,2.28
2022-11-23T05:10:50.876Z,2.25
2022-11-23T05:11:50.910Z,2.28
2022-11-23T05:12:50.859Z,2.29
2022-11-23T05:13:50.924Z,2.29
2022-11-23T05:14:50.847Z,2.29
2022-11-23T05:15:50.820Z,2.28
2022-11-23T05:16:50.811Z,2.28
2022-11-23T05:17:59.100Z,2.28
2022-11-23T05:18:50.833Z,2.24
2022-11-23T05:19:50.780Z,2.24
2022-11-23T05:20:50.820Z,2.22
2022-11-23T05:21:50.835Z,2.22
2022-11-23T05:22:50.777Z,2.21
2022-11-23T05:23:50.738Z,2.19
2022-11-23T05:24:50.780Z,2.19
2022-11-23T05:25:50.717Z,2.21
2022-11-23T05:26:54.847Z,2.19
2022-11-23T05:27:51.736Z,2.19
2022-11-23T05:28:50.694Z,2.17
2022-11-23T05:29:50.714Z,2.18
2022-11-23T05:30:50.758Z,2.15
2022-11-23T05:31:50.681Z,2.15
2022-11-23T05:32:50.667Z,2.17
2022-11-23T05:33:50.642Z,2.15
2022-11-23T05:34:50.727Z,2.19
2022-11-23T05:35:50.615Z,2.19
2022-11-23T05:36:50.657Z,2.21
2022-11-23T05:37:50.608Z,2.21
2022-11-23T05:38:50.596Z,2.21
2022-11-23T05:39:50.575Z,2.19
2022-11-23T05:40:50.563Z,2.17
2022-11-23T05:41:50.554Z,2.14
2022-11-23T05:42:50.572Z,2.12
2022-11-23T05:43:50.552Z,2.07
2022-11-23T05:44:50.525Z,2.06
2022-11-23T05:45:50.601Z,2.00
2022-11-23T05:46:50.510Z,1.99
2022-11-23T05:47:50.514Z,1.92
2022-11-23T05:48:50.483Z,1.87
2022-11-23T05:49:50.495Z,1.84
2022-11-23T05:50:50.573Z,1.80
2022-11-23T05:51:50.452Z,1.78
2022-11-23T05:52:50.466Z,1.75
2022-11-23T05:53:50.606Z,1.74
2022-11-23T05:54:50.420Z,1.69
2022-11-23T05:55:50.428Z,1.63
2022-11-23T05:56:50.404Z,1.66
2022-11-23T05:57:50.386Z,1.62
2022-11-23T05:58:50.381Z,1.60
2022-11-23T05:59:50.395Z,1.56
2022-11-23T06:00:50.387Z,1.55
2022-11-23T06:01:50.354Z,1.56
2022-11-23T06:02:50.337Z,1.56
2022-11-23T06:03:50.476Z,1.56
2022-11-23T06:04:50.323Z,1.55
2022-11-23T06:05:50.355Z,1.52
2022-11-23T06:06:50.322Z,1.48
2022-11-23T06:07:50.354Z,1.46
2022-11-23T06:08:50.286Z,1.44
2022-11-23T06:09:50.286Z,1.42
2022-11-23T06:10:50.257Z,1.39
2022-11-23T06:11:50.267Z,1.34
2022-11-23T06:12:50.244Z,1.30
2022-11-23T06:13:50.228Z,1.26
2022-11-23T06:14:50.214Z,1.23
2022-11-23T06:15:50.344Z,1.21
2022-11-23T06:16:50.229Z,1.18
2022-11-23T06:17:50.194Z,1.16
2022-11-23T06:18:50.187Z,1.10
2022-11-23T06:19:50.227Z,1.10
2022-11-23T06:20:50.163Z,1.08
2022-11-23T06:21:50.666Z,1.06
2022-11-23T06:22:50.695Z,1.02
2022-11-23T06:23:50.142Z,0.99
2022-11-23T06:24:50.111Z,0.94
2022-11-23T06:25:50.180Z,0.91
2022-11-23T06:26:50.096Z,0.88
2022-11-23T06:27:50.083Z,0.82
2022-11-23T06:28:50.085Z,0.85
2022-11-23T06:29:50.142Z,0.85
2022-11-23T06:30:50.051Z,0.81
2022-11-23T06:31:50.086Z,0.78
2022-11-23T06:32:50.034Z,0.76
2022-11-23T06:33:57.514Z,0.69
2022-11-23T06:34:50.014Z,0.63
2022-11-23T06:35:50.061Z,0.63
2022-11-23T06:36:49.992Z,0.62
2022-11-23T06:37:49.985Z,0.63
2022-11-23T06:38:50.001Z,0.63
2022-11-23T06:39:49.962Z,0.63
2022-11-23T06:40:49.998Z,0.59
2022-11-23T06:41:49.942Z,0.55
2022-11-23T06:42:49.939Z,0.51
2022-11-23T06:43:49.928Z,0.44
2022-11-23T06:44:49.910Z,0.44
2022-11-23T06:45:49.911Z,0.40
2022-11-23T06:46:49.915Z,0.36
2022-11-23T06:47:49.929Z,0.26
2022-11-23T06:48:49.871Z,0.23
2022-11-23T06:49:49.896Z,0.18
2022-11-23T06:50:49.867Z,0.22
2022-11-23T06:51:49.868Z,0.23
2022-11-23T06:52:49.829Z,0.20
2022-11-23T06:53:49.821Z,0.23
2022-11-23T06:54:49.817Z,0.22
2022-11-23T06:55:49.835Z,0.22
2022-11-23T06:56:49.821Z,0.26
2022-11-23T06:57:49.810Z,0.27
2022-11-23T06:58:49.765Z,0.27
2022-11-23T06:59:49.791Z,0.27
2022-11-23T07:00:49.778Z,0.25
2022-11-23T07:01:49.801Z,0.27
2022-11-23T07:02:49.726Z,0.32
2022-11-23T07:03:49.795Z,0.33
2022-11-23T07:04:49.744Z,0.40
2022-11-23T07:05:49.699Z,0.41
2022-11-23T07:06:49.709Z,0.43
2022-11-23T07:07:49.786Z,0.47
2022-11-23T07:08:49.662Z,0.51
2022-11-23T07:09:49.671Z,0.53
2022-11-23T07:10:49.682Z,0.55
2022-11-23T07:11:49.662Z,0.60
2022-11-23T07:12:49.658Z,0.63
2022-11-23T07:13:49.653Z,0.66
2022-11-23T07:14:49.650Z,0.67
2022-11-23T07:15:49.671Z,0.70
2022-11-23T07:16:49.601Z,0.72
2022-11-23T07:17:49.618Z,0.73
2022-11-23T07:18:49.570Z,0.73
2022-11-23T07:19:49.618Z,0.73
2022-11-23T07:20:49.546Z,0.73
2022-11-23T07:21:49.561Z,0.76
2022-11-23T07:22:49.636Z,0.76
2022-11-23T07:23:49.573Z,0.80
2022-11-23T07:24:49.560Z,0.82
2022-11-23T07:25:49.507Z,0.85
2022-11-23T07:26:49.510Z,0.84
2022-11-23T07:27:49.634Z,0.87
2022-11-23T07:28:49.500Z,0.90
2022-11-23T07:29:49.466Z,0.94
2022-11-23T07:30:49.476Z,1.00
2022-11-23T07:31:49.482Z,1.09
2022-11-23T07:32:49.431Z,1.17
2022-11-23T07:33:49.504Z,1.30
2022-11-23T07:34:49.398Z,1.31
2022-11-23T07:35:49.419Z,1.38
2022-11-23T07:36:49.419Z,1.42
2022-11-23T07:37:49.390Z,1.46
2022-11-23T07:38:49.404Z,1.55
2022-11-23T07:39:57.290Z,1.62
2022-11-23T07:40:50.342Z,1.67
2022-11-23T07:41:51.364Z,1.77
2022-11-23T07:42:49.357Z,1.97
2022-11-23T07:43:49.319Z,2.17
2022-11-23T07:44:49.329Z,2.43
2022-11-23T07:45:49.322Z,2.63
2022-11-23T07:46:49.281Z,2.71
2022-11-23T07:47:49.280Z,2.86
2022-11-23T07:48:49.397Z,2.89
2022-11-23T07:49:49.262Z,2.99
2022-11-23T07:50:49.310Z,2.97
2022-11-23T07:51:49.323Z,2.97
2022-11-23T07:52:49.251Z,3.08
2022-11-23T07:53:49.221Z,3.18
2022-11-23T07:54:49.265Z,3.27
2022-11-23T07:55:49.242Z,3.27
2022-11-23T07:56:49.260Z,3.33
2022-11-23T07:57:49.188Z,3.30
2022-11-23T07:58:49.190Z,3.35
2022-11-23T07:59:49.198Z,3.49
2022-11-23T08:00:49.193Z,3.48
2022-11-23T08:01:53.130Z,3.49
2022-11-23T08:03:19.387Z,3.52
2022-11-23T08:03:50.214Z,3.56
2022-11-23T08:04:49.113Z,3.59
2022-11-23T08:05:49.121Z,3.52
2022-11-23T08:06:49.073Z,3.46
2022-11-23T08:07:49.177Z,3.45
2022-11-23T08:08:49.063Z,3.42
2022-11-23T08:09:49.050Z,3.36
2022-11-23T08:10:53.389Z,3.35
2022-11-23T08:11:49.079Z,3.46
2022-11-23T08:12:49.057Z,3.54
2022-11-23T08:13:49.018Z,3.62
2022-11-23T08:14:48.985Z,3.55
2022-11-23T08:15:54.359Z,3.64
2022-11-23T08:16:50.100Z,3.67
2022-11-23T08:17:49.022Z,3.74
2022-11-23T08:18:49.001Z,3.64
2022-11-23T08:19:48.975Z,3.72
2022-11-23T08:20:48.936Z,3.84
2022-11-23T08:21:48.940Z,3.98
2022-11-23T08:22:48.985Z,4.08
2022-11-23T08:23:48.928Z,4.23
2022-11-23T08:24:48.999Z,4.60
2022-11-23T08:25:48.894Z,5.22
2022-11-23T08:26:48.998Z,5.95
2022-11-23T08:27:48.896Z,6.47
2022-11-23T08:28:48.851Z,7.19
2022-11-23T08:29:48.837Z,7.88
2022-11-23T08:30:48.845Z,8.52
2022-11-23T08:31:48.818Z,8.75
2022-11-23T08:32:48.810Z,9.03
2022-11-23T08:33:48.810Z,9.08
2022-11-23T08:34:48.782Z,8.80
2022-11-23T08:35:49.082Z,9.04
2022-11-23T08:36:48.767Z,9.67
2022-11-23T08:37:48.754Z,9.91
2022-11-23T08:38:48.808Z,10.27
2022-11-23T08:39:48.830Z,10.72
2022-11-23T08:40:48.723Z,11.45
2022-11-23T08:41:48.712Z,11.88
2022-11-23T08:42:48.722Z,11.54
2022-11-23T08:43:48.730Z,11.48
2022-11-23T08:44:48.692Z,11.25
2022-11-23T08:45:49.789Z,11.18
2022-11-23T08:46:48.662Z,11.40
2022-11-23T08:47:48.661Z,11.77
2022-11-23T08:48:48.636Z,12.46
2022-11-23T08:49:48.634Z,12.55
2022-11-23T08:50:48.651Z,12.73
2022-11-23T08:51:50.436Z,12.72
2022-11-23T08:52:48.631Z,12.73
2022-11-23T08:53:48.684Z,12.72
2022-11-23T08:54:48.596Z,12.35
2022-11-23T08:55:48.718Z,12.96
2022-11-23T08:56:48.631Z,13.42
2022-11-23T08:57:48.550Z,13.78
2022-11-23T08:58:48.606Z,13.94
2022-11-23T08:59:48.546Z,13.06
2022-11-23T09:00:48.562Z,13.68
2022-11-23T09:01:48.623Z,14.31
2022-11-23T09:02:48.767Z,14.53
2022-11-23T09:03:48.489Z,14.23
2022-11-23T09:04:48.475Z,14.03
2022-11-23T09:05:48.463Z,14.15
2022-11-23T09:06:48.454Z,13.94
2022-11-23T09:07:48.628Z,14.26
2022-11-23T09:08:48.479Z,14.36
2022-11-23T09:09:49.338Z,14.41
2022-11-23T09:10:48.411Z,13.45
2022-11-23T09:11:49.426Z,12.88
2022-11-23T09:12:48.396Z,12.95
2022-11-23T09:13:48.375Z,12.93
2022-11-23T09:14:48.828Z,12.63
2022-11-23T09:15:48.400Z,13.04
2022-11-23T09:16:48.351Z,13.13
2022-11-23T09:17:49.350Z,13.98
2022-11-23T09:18:48.357Z,14.16
2022-11-23T09:19:48.313Z,14.36
2022-11-23T09:20:48.346Z,13.47
2022-11-23T09:21:48.305Z,13.93
2022-11-23T09:22:48.283Z,14.52
2022-11-23T09:23:48.283Z,13.68
2022-11-23T09:24:48.295Z,13.32
2022-11-23T09:25:48.326Z,12.84
2022-11-23T09:26:48.250Z,12.87
2022-11-23T09:27:48.247Z,13.88
2022-11-23T09:28:48.261Z,14.45
2022-11-23T09:29:48.261Z,14.71
2022-11-23T09:30:48.216Z,14.93
2022-11-23T09:31:48.207Z,14.93
2022-11-23T09:32:48.180Z,14.69
2022-11-23T09:33:48.221Z,14.46
2022-11-23T09:34:48.191Z,14.04
2022-11-23T09:35:48.760Z,12.88
2022-11-23T09:36:48.141Z,11.67
2022-11-23T09:37:48.755Z,11.11
2022-11-23T09:38:56.940Z,10.85
2022-11-23T09:39:49.528Z,10.72
2022-11-23T09:40:48.138Z,10.28
2022-11-23T09:41:48.083Z,9.65
2022-11-23T09:42:48.118Z,9.69
2022-11-23T09:43:48.176Z,9.34
2022-11-23T09:44:48.075Z,9.51
2022-11-23T09:45:48.085Z,9.78
2022-11-23T09:46:48.023Z,10.36
2022-11-23T09:47:48.023Z,11.08
2022-11-23T09:48:48.101Z,12.48
2022-11-23T09:49:47.992Z,14.04
2022-11-23T09:50:47.995Z,14.96
2022-11-23T09:51:47.973Z,15.36
2022-11-23T09:52:47.999Z,15.35
2022-11-23T09:53:48.017Z,16.21
2022-11-23T09:54:47.952Z,16.72
2022-11-23T09:55:47.969Z,17.14
2022-11-23T09:56:48.006Z,17.62
2022-11-23T09:57:47.939Z,18.02
2022-11-23T09:58:47.900Z,17.79
2022-11-23T09:59:47.925Z,17.17
2022-11-23T10:00:47.903Z,17.46
2022-11-23T10:01:48.468Z,17.50
2022-11-23T10:02:47.863Z,17.41
2022-11-23T10:03:49.383Z,16.76
2022-11-23T10:04:47.853Z,16.28
2022-11-23T10:05:47.868Z,16.72
2022-11-23T10:06:48.752Z,17.07
2022-11-23T10:07:47.925Z,16.36
2022-11-23T10:08:47.792Z,17.06
2022-11-23T10:09:48.758Z,17.79
2022-11-23T10:10:47.838Z,17.93
2022-11-23T10:11:47.765Z,17.87
2022-11-23T10:12:47.819Z,17.39
2022-11-23T10:13:48.289Z,17.54
2022-11-23T10:14:47.742Z,18.38
2022-11-23T10:15:47.809Z,18.27
2022-11-23T10:16:47.727Z,18.03
2022-11-23T10:17:47.796Z,18.20
2022-11-23T10:18:47.697Z,18.67
2022-11-23T10:19:47.705Z,18.43
2022-11-23T10:20:47.695Z,18.66
2022-11-23T10:21:47.682Z,19.42
2022-11-23T10:22:47.701Z,19.77
2022-11-23T10:23:47.689Z,20.29
2022-11-23T10:24:47.626Z,18.52
2022-11-23T10:25:47.633Z,17.16
2022-11-23T10:26:47.616Z,17.71
2022-11-23T10:27:47.802Z,18.48
2022-11-23T10:28:47.665Z,19.05
2022-11-23T10:29:47.616Z,17.83
2022-11-23T10:30:47.672Z,16.77
2022-11-23T10:31:49.597Z,17.71
2022-11-23T10:32:47.570Z,17.91
2022-11-23T10:33:47.569Z,17.54
2022-11-23T10:34:47.557Z,17.65
2022-11-23T10:35:47.531Z,18.08
2022-11-23T10:36:47.535Z,18.18
2022-11-23T10:37:47.570Z,18.05
2022-11-23T10:38:47.493Z,16.95
2022-11-23T10:39:47.500Z,16.06
2022-11-23T10:40:47.469Z,16.36
2022-11-23T10:41:47.462Z,16.91
2022-11-23T10:42:47.530Z,16.84
2022-11-23T10:43:47.493Z,16.65
2022-11-23T10:44:47.442Z,16.80
2022-11-23T10:45:47.446Z,17.20
2022-11-23T10:46:47.426Z,16.82
2022-11-23T10:47:47.427Z,16.88
2022-11-23T10:48:47.451Z,16.98
2022-11-23T10:49:47.420Z,17.47
2022-11-23T10:50:47.395Z,18.09
2022-11-23T10:51:47.362Z,18.66
2022-11-23T10:52:47.385Z,16.97
2022-11-23T10:53:47.342Z,16.72
2022-11-23T10:54:47.826Z,16.34
2022-11-23T10:55:47.321Z,16.87
2022-11-23T10:56:47.312Z,16.82
2022-11-23T10:57:47.309Z,17.09
2022-11-23T10:58:47.305Z,16.10
2022-11-23T10:59:47.321Z,15.81
2022-11-23T11:00:47.346Z,15.90
2022-11-23T11:01:47.306Z,15.81
2022-11-23T11:02:47.295Z,15.54
2022-11-23T11:03:47.264Z,15.29
2022-11-23T11:04:47.280Z,14.58
2022-11-23T11:06:48.315Z,14.71
2022-11-23T11:07:47.234Z,13.72
2022-11-23T11:08:47.197Z,14.28
2022-11-23T11:09:47.809Z,15.20
2022-11-23T11:10:47.300Z,16.17
2022-11-23T11:11:47.239Z,15.65
2022-11-23T11:12:47.152Z,15.68
2022-11-23T11:13:47.133Z,15.85
2022-11-23T11:14:47.365Z,15.63
2022-11-23T11:15:47.867Z,14.63
2022-11-23T11:16:47.758Z,14.16
2022-11-23T11:17:51.802Z,13.85
2022-11-23T11:18:47.137Z,13.39
2022-11-23T11:19:47.146Z,12.90
2022-11-23T11:20:47.097Z,13.05
2022-11-23T11:21:47.095Z,12.90
2022-11-23T11:22:48.010Z,13.36
2022-11-23T11:23:47.086Z,12.23
2022-11-23T11:24:47.024Z,11.82
2022-11-23T11:25:47.069Z,12.30
2022-11-23T11:26:47.002Z,12.90
2022-11-23T11:27:47.077Z,12.76
2022-11-23T11:28:46.978Z,12.54
2022-11-23T11:29:47.004Z,11.28
2022-11-23T11:30:46.963Z,11.13
2022-11-23T11:31:46.951Z,11.13
2022-11-23T11:32:46.940Z,10.76
2022-11-23T11:33:46.924Z,10.26
2022-11-23T11:34:54.507Z,10.55
2022-11-23T11:35:46.916Z,10.98
2022-11-23T11:36:46.929Z,11.27
2022-11-23T11:37:46.942Z,11.23
2022-11-23T11:39:07.800Z,11.16
2022-11-23T11:39:47.861Z,11.13
2022-11-23T11:40:46.909Z,11.15
2022-11-23T11:41:46.906Z,10.73
2022-11-23T11:42:46.831Z,10.64
2022-11-23T11:43:46.814Z,10.90
2022-11-23T11:44:46.827Z,11.19
2022-11-23T11:46:13.066Z,11.56
2022-11-23T11:46:47.796Z,12.10
2022-11-23T11:47:46.814Z,12.10
2022-11-23T11:48:46.768Z,11.64
2022-11-23T11:49:46.759Z,11.48
2022-11-23T11:50:46.770Z,11.43
2022-11-23T11:51:46.765Z,11.43
2022-11-23T11:52:46.788Z,10.93
2022-11-23T11:53:46.755Z,10.31
2022-11-23T11:54:46.708Z,10.57
2022-11-23T11:55:46.801Z,10.75
2022-11-23T11:56:46.696Z,10.98
2022-11-23T11:57:46.754Z,11.15
2022-11-23T11:58:46.700Z,10.73
2022-11-23T11:59:46.705Z,10.41
2022-11-23T12:00:46.642Z,10.03
2022-11-23T12:01:46.644Z,9.69
2022-11-23T12:02:46.680Z,9.29
2022-11-23T12:03:46.606Z,8.93
2022-11-23T12:04:46.589Z,8.38
2022-11-23T12:05:46.591Z,8.29
2022-11-23T12:06:46.600Z,8.29
2022-11-23T12:07:46.635Z,8.21
2022-11-23T12:08:46.608Z,7.96
2022-11-23T12:09:46.534Z,7.91
2022-11-23T12:10:46.561Z,7.83
2022-11-23T12:11:46.524Z,7.80
2022-11-23T12:12:46.530Z,7.80
2022-11-23T12:13:46.523Z,7.78
2022-11-23T12:14:46.492Z,7.76
2022-11-23T12:15:50.504Z,7.55
2022-11-23T12:16:52.294Z,7.52
2022-11-23T12:17:47.465Z,7.50
2022-11-23T12:18:46.497Z,7.52
2022-11-23T12:19:46.439Z,7.58
2022-11-23T12:20:46.442Z,7.46
2022-11-23T12:21:50.119Z,7.42
2022-11-23T12:22:47.426Z,7.49
2022-11-23T12:23:46.407Z,7.60
2022-11-23T12:24:46.406Z,7.69
2022-11-23T12:25:46.370Z,7.69
2022-11-23T12:26:46.374Z,7.64
2022-11-23T12:27:48.786Z,7.61
2022-11-23T12:28:46.343Z,7.55
2022-11-23T12:29:46.384Z,7.50
2022-11-23T12:30:46.330Z,7.43
2022-11-23T12:31:46.364Z,7.43
2022-11-23T12:32:46.309Z,7.80
2022-11-23T12:33:46.297Z,8.01
2022-11-23T12:34:46.291Z,7.98
2022-11-23T12:35:46.309Z,7.76
2022-11-23T12:36:46.317Z,7.54
2022-11-23T12:37:46.245Z,7.42
2022-11-23T12:38:46.273Z,7.31
2022-11-23T12:39:46.233Z,7.24
2022-11-23T12:40:46.213Z,7.19
2022-11-23T12:41:46.210Z,7.21
2022-11-23T12:42:46.304Z,7.34
2022-11-23T12:43:46.204Z,7.55
2022-11-23T12:44:46.177Z,7.52
2022-11-23T12:45:46.186Z,7.46
2022-11-23T12:46:46.190Z,7.29
2022-11-23T12:47:50.886Z,7.24
2022-11-23T12:48:46.940Z,7.21
2022-11-23T12:49:46.173Z,7.13
2022-11-23T12:50:46.129Z,7.11
2022-11-23T12:51:46.106Z,7.03
2022-11-23T12:52:46.272Z,6.93
2022-11-23T12:53:46.291Z,6.92
2022-11-23T12:54:46.145Z,6.93
2022-11-23T12:55:46.120Z,6.97
2022-11-23T12:56:46.090Z,6.97
2022-11-23T12:57:46.172Z,6.91
2022-11-23T12:58:46.109Z,6.88
2022-11-23T12:59:46.075Z,6.82
2022-11-23T13:00:46.135Z,6.68
2022-11-23T13:01:46.032Z,6.60
2022-11-23T13:02:46.071Z,6.52
2022-11-23T13:03:46.115Z,6.45
2022-11-23T13:04:45.987Z,6.34
2022-11-23T13:05:45.999Z,6.32
2022-11-23T13:06:59.639Z,6.27
2022-11-23T13:07:49.279Z,6.27
2022-11-23T13:08:46.044Z,6.27
2022-11-23T13:09:46.079Z,6.40
2022-11-23T13:10:46.040Z,6.47
2022-11-23T13:11:45.916Z,6.55
2022-11-23T13:12:45.892Z,6.53